sensor_id;sensor_type;location;lat;lon;timestamp;temperature;humidity
60701;DHT22;46541;49.894;10.886;2023-07-09T00:01:17;22.20;73.90
60701;DHT22;46541;49.894;10.886;2023-07-09T00:03:48;22.20;74.70
60701;DHT22;46541;49.894;10.886;2023-07-09T00:06:19;22.20;74.80
60701;DHT22;46541;49.894;10.886;2023-07-09T00:08:48;22.20;75.90
60701;DHT22;46541;49.894;10.886;2023-07-09T00:11:16;22.20;76.20
60701;DHT22;46541;49.894;10.886;2023-07-09T00:13:43;22.20;76.20
60701;DHT22;46541;49.894;10.886;2023-07-09T00:16:19;22.20;76.50
60701;DHT22;46541;49.894;10.886;2023-07-09T00:18:48;22.10;76.20
60701;DHT22;46541;49.894;10.886;2023-07-09T00:21:17;22.10;78.00
60701;DHT22;46541;49.894;10.886;2023-07-09T00:23:44;22.10;78.10
60701;DHT22;46541;49.894;10.886;2023-07-09T00:26:12;22.10;78.50
60701;DHT22;46541;49.894;10.886;2023-07-09T00:28:41;22.10;79.70
60701;DHT22;46541;49.894;10.886;2023-07-09T00:31:11;22.10;81.10
60701;DHT22;46541;49.894;10.886;2023-07-09T00:33:40;22.10;80.40
60701;DHT22;46541;49.894;10.886;2023-07-09T00:36:26;22.00;79.70
60701;DHT22;46541;49.894;10.886;2023-07-09T00:38:53;22.00;79.40
60701;DHT22;46541;49.894;10.886;2023-07-09T00:41:22;22.00;80.20
60701;DHT22;46541;49.894;10.886;2023-07-09T00:43:51;22.00;81.10
60701;DHT22;46541;49.894;10.886;2023-07-09T00:48:53;21.90;77.70
60701;DHT22;46541;49.894;10.886;2023-07-09T00:51:26;22.00;76.90
60701;DHT22;46541;49.894;10.886;2023-07-09T00:53:57;21.90;76.60
60701;DHT22;46541;49.894;10.886;2023-07-09T00:56:35;21.90;76.70
60701;DHT22;46541;49.894;10.886;2023-07-09T00:59:07;21.80;78.50
60701;DHT22;46541;49.894;10.886;2023-07-09T01:01:34;21.80;79.10
60701;DHT22;46541;49.894;10.886;2023-07-09T01:04:03;21.70;79.60
60701;DHT22;46541;49.894;10.886;2023-07-09T01:06:34;21.70;79.60
60701;DHT22;46541;49.894;10.886;2023-07-09T01:09:04;21.70;79.80
60701;DHT22;46541;49.894;10.886;2023-07-09T01:11:31;21.70;79.80
60701;DHT22;46541;49.894;10.886;2023-07-09T01:14:02;21.60;79.40
60701;DHT22;46541;49.894;10.886;2023-07-09T01:16:36;21.60;78.80
60701;DHT22;46541;49.894;10.886;2023-07-09T01:19:04;21.60;79.20
60701;DHT22;46541;49.894;10.886;2023-07-09T01:21:31;21.50;79.40
60701;DHT22;46541;49.894;10.886;2023-07-09T01:24:10;21.60;79.60
60701;DHT22;46541;49.894;10.886;2023-07-09T01:26:37;21.50;80.20
60701;DHT22;46541;49.894;10.886;2023-07-09T01:29:05;21.50;81.70
60701;DHT22;46541;49.894;10.886;2023-07-09T01:31:32;21.50;82.90
60701;DHT22;46541;49.894;10.886;2023-07-09T01:34:00;21.40;82.70
60701;DHT22;46541;49.894;10.886;2023-07-09T01:36:27;21.40;82.70
60701;DHT22;46541;49.894;10.886;2023-07-09T01:38:56;21.40;82.70
60701;DHT22;46541;49.894;10.886;2023-07-09T01:41:23;21.40;82.40
60701;DHT22;46541;49.894;10.886;2023-07-09T01:43:50;21.30;82.70
60701;DHT22;46541;49.894;10.886;2023-07-09T01:46:17;21.30;82.40
60701;DHT22;46541;49.894;10.886;2023-07-09T01:48:43;21.30;82.40
60701;DHT22;46541;49.894;10.886;2023-07-09T01:51:14;21.20;83.00
60701;DHT22;46541;49.894;10.886;2023-07-09T01:53:43;21.20;83.40
60701;DHT22;46541;49.894;10.886;2023-07-09T01:56:11;21.20;83.80
60701;DHT22;46541;49.894;10.886;2023-07-09T01:58:38;21.20;83.80
60701;DHT22;46541;49.894;10.886;2023-07-09T02:01:09;21.20;84.60
60701;DHT22;46541;49.894;10.886;2023-07-09T02:03:36;21.20;84.20
60701;DHT22;46541;49.894;10.886;2023-07-09T02:06:03;21.10;83.50
60701;DHT22;46541;49.894;10.886;2023-07-09T02:08:36;21.10;84.40
60701;DHT22;46541;49.894;10.886;2023-07-09T02:11:03;21.00;85.20
60701;DHT22;46541;49.894;10.886;2023-07-09T02:13:30;21.00;85.70
60701;DHT22;46541;49.894;10.886;2023-07-09T02:15:57;21.00;86.20
60701;DHT22;46541;49.894;10.886;2023-07-09T02:18:23;20.90;86.60
60701;DHT22;46541;49.894;10.886;2023-07-09T02:20:50;20.80;87.00
60701;DHT22;46541;49.894;10.886;2023-07-09T02:23:17;20.80;88.10
60701;DHT22;46541;49.894;10.886;2023-07-09T02:25:44;20.70;89.20
60701;DHT22;46541;49.894;10.886;2023-07-09T02:28:10;20.70;90.20
60701;DHT22;46541;49.894;10.886;2023-07-09T02:30:37;20.70;90.70
60701;DHT22;46541;49.894;10.886;2023-07-09T02:33:04;20.70;91.00
60701;DHT22;46541;49.894;10.886;2023-07-09T02:35:31;20.60;91.30
60701;DHT22;46541;49.894;10.886;2023-07-09T02:37:58;20.50;91.80
60701;DHT22;46541;49.894;10.886;2023-07-09T02:40:24;20.50;92.30
60701;DHT22;46541;49.894;10.886;2023-07-09T02:42:51;20.40;92.80
60701;DHT22;46541;49.894;10.886;2023-07-09T02:45:18;20.40;93.00
60701;DHT22;46541;49.894;10.886;2023-07-09T02:47:45;20.30;93.30
60701;DHT22;46541;49.894;10.886;2023-07-09T02:50:13;20.30;93.40
60701;DHT22;46541;49.894;10.886;2023-07-09T02:52:40;20.30;93.40
60701;DHT22;46541;49.894;10.886;2023-07-09T02:55:08;20.20;93.50
60701;DHT22;46541;49.894;10.886;2023-07-09T02:57:35;20.20;93.70
60701;DHT22;46541;49.894;10.886;2023-07-09T03:00:02;20.10;94.00
60701;DHT22;46541;49.894;10.886;2023-07-09T03:02:32;20.10;94.20
60701;DHT22;46541;49.894;10.886;2023-07-09T03:04:59;20.10;94.40
60701;DHT22;46541;49.894;10.886;2023-07-09T03:07:25;20.10;94.90
60701;DHT22;46541;49.894;10.886;2023-07-09T03:09:52;20.10;95.20
60701;DHT22;46541;49.894;10.886;2023-07-09T03:12:19;20.10;95.90
60701;DHT22;46541;49.894;10.886;2023-07-09T03:14:49;20.10;96.60
60701;DHT22;46541;49.894;10.886;2023-07-09T03:17:16;20.00;97.50
60701;DHT22;46541;49.894;10.886;2023-07-09T03:19:43;20.00;98.10
60701;DHT22;46541;49.894;10.886;2023-07-09T03:22:09;20.00;98.60
60701;DHT22;46541;49.894;10.886;2023-07-09T03:24:36;19.90;99.00
60701;DHT22;46541;49.894;10.886;2023-07-09T03:27:03;19.90;99.50
60701;DHT22;46541;49.894;10.886;2023-07-09T03:29:30;19.80;99.80
60701;DHT22;46541;49.894;10.886;2023-07-09T03:31:57;19.90;99.90
60701;DHT22;46541;49.894;10.886;2023-07-09T03:34:24;19.80;99.90
60701;DHT22;46541;49.894;10.886;2023-07-09T03:36:51;19.80;99.90
60701;DHT22;46541;49.894;10.886;2023-07-09T03:39:18;19.90;99.90
60701;DHT22;46541;49.894;10.886;2023-07-09T03:41:45;19.90;99.90
60701;DHT22;46541;49.894;10.886;2023-07-09T03:44:11;19.90;99.90
60701;DHT22;46541;49.894;10.886;2023-07-09T03:46:39;19.90;99.90
60701;DHT22;46541;49.894;10.886;2023-07-09T03:49:06;19.90;99.90
60701;DHT22;46541;49.894;10.886;2023-07-09T03:51:33;19.90;99.90
60701;DHT22;46541;49.894;10.886;2023-07-09T03:54:00;19.90;99.90
60701;DHT22;46541;49.894;10.886;2023-07-09T03:56:26;19.90;99.90
60701;DHT22;46541;49.894;10.886;2023-07-09T03:58:53;19.80;99.90
60701;DHT22;46541;49.894;10.886;2023-07-09T04:01:20;19.80;99.90
60701;DHT22;46541;49.894;10.886;2023-07-09T04:03:47;19.90;99.90
60701;DHT22;46541;49.894;10.886;2023-07-09T04:06:14;19.90;99.90
60701;DHT22;46541;49.894;10.886;2023-07-09T04:08:41;19.90;99.90
60701;DHT22;46541;49.894;10.886;2023-07-09T04:11:07;19.80;99.90
60701;DHT22;46541;49.894;10.886;2023-07-09T04:13:34;19.80;99.90
60701;DHT22;46541;49.894;10.886;2023-07-09T04:16:01;19.90;99.90
60701;DHT22;46541;49.894;10.886;2023-07-09T04:18:28;19.90;99.90
60701;DHT22;46541;49.894;10.886;2023-07-09T04:20:55;19.90;99.90
60701;DHT22;46541;49.894;10.886;2023-07-09T04:23:22;20.00;99.90
60701;DHT22;46541;49.894;10.886;2023-07-09T04:25:49;20.00;99.90
60701;DHT22;46541;49.894;10.886;2023-07-09T04:28:16;20.10;99.90
60701;DHT22;46541;49.894;10.886;2023-07-09T04:30:46;20.10;99.90
60701;DHT22;46541;49.894;10.886;2023-07-09T04:33:15;20.10;99.90
60701;DHT22;46541;49.894;10.886;2023-07-09T04:35:45;20.10;99.90
60701;DHT22;46541;49.894;10.886;2023-07-09T04:38:13;20.20;99.90
60701;DHT22;46541;49.894;10.886;2023-07-09T04:40:40;20.30;99.90
60701;DHT22;46541;49.894;10.886;2023-07-09T04:43:07;20.30;99.90
60701;DHT22;46541;49.894;10.886;2023-07-09T04:45:34;20.30;99.90
60701;DHT22;46541;49.894;10.886;2023-07-09T04:48:01;20.40;99.90
60701;DHT22;46541;49.894;10.886;2023-07-09T04:50:28;20.50;99.60
60701;DHT22;46541;49.894;10.886;2023-07-09T04:52:55;20.50;99.30
60701;DHT22;46541;49.894;10.886;2023-07-09T04:55:22;20.60;98.90
60701;DHT22;46541;49.894;10.886;2023-07-09T04:57:49;20.70;98.50
60701;DHT22;46541;49.894;10.886;2023-07-09T05:00:16;20.80;98.20
60701;DHT22;46541;49.894;10.886;2023-07-09T05:02:43;20.80;97.90
60701;DHT22;46541;49.894;10.886;2023-07-09T05:05:10;20.90;97.90
60701;DHT22;46541;49.894;10.886;2023-07-09T05:07:38;21.00;98.00
60701;DHT22;46541;49.894;10.886;2023-07-09T05:10:07;21.00;97.50
60701;DHT22;46541;49.894;10.886;2023-07-09T05:12:34;21.00;97.40
60701;DHT22;46541;49.894;10.886;2023-07-09T05:15:00;21.10;97.30
60701;DHT22;46541;49.894;10.886;2023-07-09T05:17:27;21.20;97.10
60701;DHT22;46541;49.894;10.886;2023-07-09T05:19:54;21.20;96.90
60701;DHT22;46541;49.894;10.886;2023-07-09T05:22:21;21.30;96.80
60701;DHT22;46541;49.894;10.886;2023-07-09T05:24:47;21.40;96.60
60701;DHT22;46541;49.894;10.886;2023-07-09T05:27:14;21.50;96.30
60701;DHT22;46541;49.894;10.886;2023-07-09T05:29:41;21.60;96.00
60701;DHT22;46541;49.894;10.886;2023-07-09T05:32:08;21.80;95.70
60701;DHT22;46541;49.894;10.886;2023-07-09T05:34:34;21.80;95.60
60701;DHT22;46541;49.894;10.886;2023-07-09T05:37:01;21.90;95.50
60701;DHT22;46541;49.894;10.886;2023-07-09T05:39:28;22.10;95.10
60701;DHT22;46541;49.894;10.886;2023-07-09T05:41:55;22.20;94.80
60701;DHT22;46541;49.894;10.886;2023-07-09T05:44:22;22.20;94.40
60701;DHT22;46541;49.894;10.886;2023-07-09T05:46:48;22.30;94.70
60701;DHT22;46541;49.894;10.886;2023-07-09T05:49:15;22.50;94.30
60701;DHT22;46541;49.894;10.886;2023-07-09T05:51:42;22.60;94.30
60701;DHT22;46541;49.894;10.886;2023-07-09T05:54:09;22.70;93.90
60701;DHT22;46541;49.894;10.886;2023-07-09T05:56:36;22.70;93.50
60701;DHT22;46541;49.894;10.886;2023-07-09T05:59:02;22.80;93.40
60701;DHT22;46541;49.894;10.886;2023-07-09T06:01:29;22.90;93.50
60701;DHT22;46541;49.894;10.886;2023-07-09T06:03:56;23.00;93.10
60701;DHT22;46541;49.894;10.886;2023-07-09T06:06:23;23.10;92.90
60701;DHT22;46541;49.894;10.886;2023-07-09T06:08:50;23.30;92.40
60701;DHT22;46541;49.894;10.886;2023-07-09T06:11:17;23.40;92.10
60701;DHT22;46541;49.894;10.886;2023-07-09T06:13:46;23.50;92.20
60701;DHT22;46541;49.894;10.886;2023-07-09T06:16:15;23.60;91.90
60701;DHT22;46541;49.894;10.886;2023-07-09T06:18:42;23.80;91.50
60701;DHT22;46541;49.894;10.886;2023-07-09T06:21:09;23.90;91.50
60701;DHT22;46541;49.894;10.886;2023-07-09T06:23:38;24.00;91.50
60701;DHT22;46541;49.894;10.886;2023-07-09T06:26:05;24.10;90.80
60701;DHT22;46541;49.894;10.886;2023-07-09T06:28:32;24.20;90.50
60701;DHT22;46541;49.894;10.886;2023-07-09T06:30:59;24.40;90.60
60701;DHT22;46541;49.894;10.886;2023-07-09T06:33:27;24.50;90.40
60701;DHT22;46541;49.894;10.886;2023-07-09T06:35:57;24.70;89.70
60701;DHT22;46541;49.894;10.886;2023-07-09T06:38:25;24.80;89.00
60701;DHT22;46541;49.894;10.886;2023-07-09T06:40:52;24.90;87.50
60701;DHT22;46541;49.894;10.886;2023-07-09T06:43:20;25.00;86.60
60701;DHT22;46541;49.894;10.886;2023-07-09T06:45:56;25.10;86.70
60701;DHT22;46541;49.894;10.886;2023-07-09T06:48:25;25.20;85.40
60701;DHT22;46541;49.894;10.886;2023-07-09T06:50:53;25.30;85.10
60701;DHT22;46541;49.894;10.886;2023-07-09T06:53:21;25.30;85.20
60701;DHT22;46541;49.894;10.886;2023-07-09T06:55:48;25.40;84.70
60701;DHT22;46541;49.894;10.886;2023-07-09T06:58:16;25.60;84.10
60701;DHT22;46541;49.894;10.886;2023-07-09T07:00:44;25.70;83.20
60701;DHT22;46541;49.894;10.886;2023-07-09T07:03:11;25.90;83.80
60701;DHT22;46541;49.894;10.886;2023-07-09T07:05:46;26.10;81.90
60701;DHT22;46541;49.894;10.886;2023-07-09T07:08:15;26.20;82.90
60701;DHT22;46541;49.894;10.886;2023-07-09T07:10:42;26.40;82.50
60701;DHT22;46541;49.894;10.886;2023-07-09T07:13:10;26.60;82.10
60701;DHT22;46541;49.894;10.886;2023-07-09T07:15:37;26.70;82.30
60701;DHT22;46541;49.894;10.886;2023-07-09T07:18:05;26.90;81.00
60701;DHT22;46541;49.894;10.886;2023-07-09T07:20:33;27.00;81.10
60701;DHT22;46541;49.894;10.886;2023-07-09T07:23:00;27.10;79.60
60701;DHT22;46541;49.894;10.886;2023-07-09T07:25:27;27.10;79.80
60701;DHT22;46541;49.894;10.886;2023-07-09T07:27:54;27.30;80.50
60701;DHT22;46541;49.894;10.886;2023-07-09T07:30:20;27.40;79.10
60701;DHT22;46541;49.894;10.886;2023-07-09T07:32:51;27.60;78.50
60701;DHT22;46541;49.894;10.886;2023-07-09T07:35:18;27.60;78.10
60701;DHT22;46541;49.894;10.886;2023-07-09T07:37:46;27.80;78.10
60701;DHT22;46541;49.894;10.886;2023-07-09T07:40:12;28.00;78.10
60701;DHT22;46541;49.894;10.886;2023-07-09T07:42:39;28.00;77.00
60701;DHT22;46541;49.894;10.886;2023-07-09T07:45:07;28.10;78.10
60701;DHT22;46541;49.894;10.886;2023-07-09T07:47:34;28.20;76.60
60701;DHT22;46541;49.894;10.886;2023-07-09T07:50:04;28.40;77.10
60701;DHT22;46541;49.894;10.886;2023-07-09T07:52:31;28.50;76.80
60701;DHT22;46541;49.894;10.886;2023-07-09T07:54:58;28.60;76.90
60701;DHT22;46541;49.894;10.886;2023-07-09T07:57:25;28.70;76.20
60701;DHT22;46541;49.894;10.886;2023-07-09T07:59:52;28.90;75.80
60701;DHT22;46541;49.894;10.886;2023-07-09T08:02:19;29.00;75.30
60701;DHT22;46541;49.894;10.886;2023-07-09T08:04:46;29.20;75.00
60701;DHT22;46541;49.894;10.886;2023-07-09T08:07:13;29.30;74.70
60701;DHT22;46541;49.894;10.886;2023-07-09T08:09:40;29.40;74.00
60701;DHT22;46541;49.894;10.886;2023-07-09T08:12:07;29.50;73.90
60701;DHT22;46541;49.894;10.886;2023-07-09T08:14:44;29.80;72.60
60701;DHT22;46541;49.894;10.886;2023-07-09T08:17:11;30.20;72.80
60701;DHT22;46541;49.894;10.886;2023-07-09T08:19:46;30.30;71.30
60701;DHT22;46541;49.894;10.886;2023-07-09T08:22:14;30.30;70.90
60701;DHT22;46541;49.894;10.886;2023-07-09T08:24:42;30.20;71.20
60701;DHT22;46541;49.894;10.886;2023-07-09T08:27:09;30.20;70.60
60701;DHT22;46541;49.894;10.886;2023-07-09T08:29:36;30.30;71.30
60701;DHT22;46541;49.894;10.886;2023-07-09T08:32:04;30.50;70.90
60701;DHT22;46541;49.894;10.886;2023-07-09T08:34:31;30.60;70.80
60701;DHT22;46541;49.894;10.886;2023-07-09T08:36:57;30.60;70.40
60701;DHT22;46541;49.894;10.886;2023-07-09T08:39:24;30.70;69.20
60701;DHT22;46541;49.894;10.886;2023-07-09T08:41:59;30.80;69.10
60701;DHT22;46541;49.894;10.886;2023-07-09T08:44:48;30.80;69.20
60701;DHT22;46541;49.894;10.886;2023-07-09T08:50:22;31.00;68.60
60701;DHT22;46541;49.894;10.886;2023-07-09T08:52:51;31.20;67.60
60701;DHT22;46541;49.894;10.886;2023-07-09T08:55:25;31.20;67.80
60701;DHT22;46541;49.894;10.886;2023-07-09T08:57:57;31.20;67.80
60701;DHT22;46541;49.894;10.886;2023-07-09T09:03:16;31.50;67.30
60701;DHT22;46541;49.894;10.886;2023-07-09T09:05:49;31.50;67.30
60701;DHT22;46541;49.894;10.886;2023-07-09T09:14:03;31.80;65.70
60701;DHT22;46541;49.894;10.886;2023-07-09T09:16:36;31.80;64.80
60701;DHT22;46541;49.894;10.886;2023-07-09T09:19:22;31.90;64.60
60701;DHT22;46541;49.894;10.886;2023-07-09T09:21:56;31.90;63.50
60701;DHT22;46541;49.894;10.886;2023-07-09T09:24:34;32.00;64.30
60701;DHT22;46541;49.894;10.886;2023-07-09T09:27:02;32.20;62.50
60701;DHT22;46541;49.894;10.886;2023-07-09T09:29:31;32.20;60.60
60701;DHT22;46541;49.894;10.886;2023-07-09T09:32:02;32.40;60.80
60701;DHT22;46541;49.894;10.886;2023-07-09T09:34:41;32.40;61.00
60701;DHT22;46541;49.894;10.886;2023-07-09T09:37:11;32.50;60.90
60701;DHT22;46541;49.894;10.886;2023-07-09T09:39:39;32.60;61.40
60701;DHT22;46541;49.894;10.886;2023-07-09T09:42:11;32.60;60.50
60701;DHT22;46541;49.894;10.886;2023-07-09T09:44:43;32.70;59.90
60701;DHT22;46541;49.894;10.886;2023-07-09T09:47:12;32.70;59.70
60701;DHT22;46541;49.894;10.886;2023-07-09T09:49:40;32.90;60.30
60701;DHT22;46541;49.894;10.886;2023-07-09T09:52:15;33.00;60.30
60701;DHT22;46541;49.894;10.886;2023-07-09T09:54:56;32.90;59.40
60701;DHT22;46541;49.894;10.886;2023-07-09T09:57:28;33.00;59.60
60701;DHT22;46541;49.894;10.886;2023-07-09T09:59:54;33.00;58.50
60701;DHT22;46541;49.894;10.886;2023-07-09T10:02:24;33.00;58.70
60701;DHT22;46541;49.894;10.886;2023-07-09T10:04:51;33.10;59.20
60701;DHT22;46541;49.894;10.886;2023-07-09T10:07:31;33.10;58.50
60701;DHT22;46541;49.894;10.886;2023-07-09T10:10:01;33.20;58.20
60701;DHT22;46541;49.894;10.886;2023-07-09T10:12:42;33.20;57.20
60701;DHT22;46541;49.894;10.886;2023-07-09T10:26:36;33.50;55.50
60701;DHT22;46541;49.894;10.886;2023-07-09T10:32:07;33.50;54.90
60701;DHT22;46541;49.894;10.886;2023-07-09T10:38:27;33.50;55.00
60701;DHT22;46541;49.894;10.886;2023-07-09T10:41:00;33.70;54.90
60701;DHT22;46541;49.894;10.886;2023-07-09T10:46:47;33.70;53.80
60701;DHT22;46541;49.894;10.886;2023-07-09T10:49:17;33.80;54.00
60701;DHT22;46541;49.894;10.886;2023-07-09T10:51:51;33.80;52.60
60701;DHT22;46541;49.894;10.886;2023-07-09T10:54:35;33.80;52.80
60701;DHT22;46541;49.894;10.886;2023-07-09T10:57:16;33.80;53.50
60701;DHT22;46541;49.894;10.886;2023-07-09T10:59:48;33.70;53.70
60701;DHT22;46541;49.894;10.886;2023-07-09T11:07:20;33.80;53.60
60701;DHT22;46541;49.894;10.886;2023-07-09T11:09:48;33.80;53.70
60701;DHT22;46541;49.894;10.886;2023-07-09T11:12:33;33.70;53.90
60701;DHT22;46541;49.894;10.886;2023-07-09T11:17:30;33.90;53.40
60701;DHT22;46541;49.894;10.886;2023-07-09T11:20:05;34.00;53.80
60701;DHT22;46541;49.894;10.886;2023-07-09T11:22:39;34.00;53.40
60701;DHT22;46541;49.894;10.886;2023-07-09T11:25:11;34.00;53.50
60701;DHT22;46541;49.894;10.886;2023-07-09T11:27:53;34.00;53.70
60701;DHT22;46541;49.894;10.886;2023-07-09T11:30:26;34.00;53.50
60701;DHT22;46541;49.894;10.886;2023-07-09T11:33:45;34.00;53.30
60701;DHT22;46541;49.894;10.886;2023-07-09T11:35:54;34.00;53.10
60701;DHT22;46541;49.894;10.886;2023-07-09T11:38:24;34.10;52.50
60701;DHT22;46541;49.894;10.886;2023-07-09T11:40:54;34.10;52.80
60701;DHT22;46541;49.894;10.886;2023-07-09T11:43:28;34.00;52.80
60701;DHT22;46541;49.894;10.886;2023-07-09T11:45:58;34.00;52.40
60701;DHT22;46541;49.894;10.886;2023-07-09T11:48:29;34.10;50.20
60701;DHT22;46541;49.894;10.886;2023-07-09T11:51:05;34.00;51.00
60701;DHT22;46541;49.894;10.886;2023-07-09T11:53:41;34.00;51.20
60701;DHT22;46541;49.894;10.886;2023-07-09T11:56:10;34.10;50.00
60701;DHT22;46541;49.894;10.886;2023-07-09T12:01:20;34.10;50.60
60701;DHT22;46541;49.894;10.886;2023-07-09T12:03:48;34.10;50.70
60701;DHT22;46541;49.894;10.886;2023-07-09T12:06:24;34.20;50.80
60701;DHT22;46541;49.894;10.886;2023-07-09T12:08:53;34.20;50.50
60701;DHT22;46541;49.894;10.886;2023-07-09T12:11:32;34.10;50.20
60701;DHT22;46541;49.894;10.886;2023-07-09T12:14:11;34.20;50.90
60701;DHT22;46541;49.894;10.886;2023-07-09T12:16:40;34.10;50.60
60701;DHT22;46541;49.894;10.886;2023-07-09T12:19:22;34.20;50.80
60701;DHT22;46541;49.894;10.886;2023-07-09T12:21:53;34.10;49.00
60701;DHT22;46541;49.894;10.886;2023-07-09T12:24:35;34.10;49.40
60701;DHT22;46541;49.894;10.886;2023-07-09T12:27:03;34.10;48.90
60701;DHT22;46541;49.894;10.886;2023-07-09T12:29:42;34.00;48.80
60701;DHT22;46541;49.894;10.886;2023-07-09T12:32:15;33.90;48.70
60701;DHT22;46541;49.894;10.886;2023-07-09T12:34:50;33.90;49.30
60701;DHT22;46541;49.894;10.886;2023-07-09T12:37:17;34.00;49.60
60701;DHT22;46541;49.894;10.886;2023-07-09T12:39:44;33.90;49.60
60701;DHT22;46541;49.894;10.886;2023-07-09T12:42:17;33.90;50.10
60701;DHT22;46541;49.894;10.886;2023-07-09T12:44:44;33.90;50.30
60701;DHT22;46541;49.894;10.886;2023-07-09T12:47:14;33.90;49.70
60701;DHT22;46541;49.894;10.886;2023-07-09T12:49:43;33.90;50.30
60701;DHT22;46541;49.894;10.886;2023-07-09T12:52:29;34.00;50.20
60701;DHT22;46541;49.894;10.886;2023-07-09T12:54:57;33.90;50.50
60701;DHT22;46541;49.894;10.886;2023-07-09T12:57:25;33.90;50.60
60701;DHT22;46541;49.894;10.886;2023-07-09T12:59:54;33.90;51.70
60701;DHT22;46541;49.894;10.886;2023-07-09T13:02:23;34.00;51.30
60701;DHT22;46541;49.894;10.886;2023-07-09T13:05:04;34.00;50.40
60701;DHT22;46541;49.894;10.886;2023-07-09T13:07:36;33.80;51.20
60701;DHT22;46541;49.894;10.886;2023-07-09T13:10:17;33.70;51.80
60701;DHT22;46541;49.894;10.886;2023-07-09T13:12:47;33.70;51.80
60701;DHT22;46541;49.894;10.886;2023-07-09T13:18:04;33.70;49.90
60701;DHT22;46541;49.894;10.886;2023-07-09T13:20:33;33.70;50.60
60701;DHT22;46541;49.894;10.886;2023-07-09T13:23:07;33.60;50.60
60701;DHT22;46541;49.894;10.886;2023-07-09T13:25:34;33.70;50.30
60701;DHT22;46541;49.894;10.886;2023-07-09T13:30:45;33.70;49.50
60701;DHT22;46541;49.894;10.886;2023-07-09T13:33:11;33.60;50.20
60701;DHT22;46541;49.894;10.886;2023-07-09T13:35:38;33.60;51.90
60701;DHT22;46541;49.894;10.886;2023-07-09T13:38:16;33.60;50.70
60701;DHT22;46541;49.894;10.886;2023-07-09T13:40:47;33.70;50.10
60701;DHT22;46541;49.894;10.886;2023-07-09T13:43:20;34.30;49.40
60701;DHT22;46541;49.894;10.886;2023-07-09T13:45:48;38.10;46.70
60701;DHT22;46541;49.894;10.886;2023-07-09T13:48:18;41.50;43.90
60701;DHT22;46541;49.894;10.886;2023-07-09T13:50:48;43.90;41.10
60701;DHT22;46541;49.894;10.886;2023-07-09T13:53:24;44.80;39.80
60701;DHT22;46541;49.894;10.886;2023-07-09T13:55:53;46.30;39.00
60701;DHT22;46541;49.894;10.886;2023-07-09T13:58:22;48.20;38.10
60701;DHT22;46541;49.894;10.886;2023-07-09T14:00:50;49.20;36.40
60701;DHT22;46541;49.894;10.886;2023-07-09T14:03:24;48.90;36.30
60701;DHT22;46541;49.894;10.886;2023-07-09T14:05:51;48.30;36.80
60701;DHT22;46541;49.894;10.886;2023-07-09T14:08:20;45.70;37.30
60701;DHT22;46541;49.894;10.886;2023-07-09T14:10:48;44.00;38.60
60701;DHT22;46541;49.894;10.886;2023-07-09T14:13:18;42.50;39.50
60701;DHT22;46541;49.894;10.886;2023-07-09T14:15:45;40.80;39.60
60701;DHT22;46541;49.894;10.886;2023-07-09T14:18:17;39.80;41.20
60701;DHT22;46541;49.894;10.886;2023-07-09T14:20:45;38.80;42.10
60701;DHT22;46541;49.894;10.886;2023-07-09T14:23:15;38.10;43.00
60701;DHT22;46541;49.894;10.886;2023-07-09T14:25:43;37.60;43.60
60701;DHT22;46541;49.894;10.886;2023-07-09T14:28:15;37.00;44.10
60701;DHT22;46541;49.894;10.886;2023-07-09T14:30:43;36.40;44.30
60701;DHT22;46541;49.894;10.886;2023-07-09T14:33:18;36.20;45.10
60701;DHT22;46541;49.894;10.886;2023-07-09T14:35:46;35.90;45.70
60701;DHT22;46541;49.894;10.886;2023-07-09T14:38:17;35.70;45.70
60701;DHT22;46541;49.894;10.886;2023-07-09T14:40:45;35.50;46.30
60701;DHT22;46541;49.894;10.886;2023-07-09T14:43:13;35.20;45.20
60701;DHT22;46541;49.894;10.886;2023-07-09T14:45:40;35.20;46.00
60701;DHT22;46541;49.894;10.886;2023-07-09T14:48:12;35.10;44.80
60701;DHT22;46541;49.894;10.886;2023-07-09T14:50:40;35.00;45.30
60701;DHT22;46541;49.894;10.886;2023-07-09T14:53:14;34.90;44.80
60701;DHT22;46541;49.894;10.886;2023-07-09T14:55:42;34.80;46.10
60701;DHT22;46541;49.894;10.886;2023-07-09T14:58:19;34.80;46.50
60701;DHT22;46541;49.894;10.886;2023-07-09T15:00:47;34.70;46.00
60701;DHT22;46541;49.894;10.886;2023-07-09T15:03:23;34.50;46.30
60701;DHT22;46541;49.894;10.886;2023-07-09T15:05:51;34.50;46.60
60701;DHT22;46541;49.894;10.886;2023-07-09T15:08:20;34.50;45.90
60701;DHT22;46541;49.894;10.886;2023-07-09T15:10:52;34.40;46.00
60701;DHT22;46541;49.894;10.886;2023-07-09T15:13:32;34.40;46.60
60701;DHT22;46541;49.894;10.886;2023-07-09T15:16:01;34.30;47.20
60701;DHT22;46541;49.894;10.886;2023-07-09T15:18:28;34.30;46.90
60701;DHT22;46541;49.894;10.886;2023-07-09T15:20:58;34.30;46.60
60701;DHT22;46541;49.894;10.886;2023-07-09T15:23:26;34.20;47.50
60701;DHT22;46541;49.894;10.886;2023-07-09T15:25:55;34.20;47.00
60701;DHT22;46541;49.894;10.886;2023-07-09T15:28:22;34.10;46.20
60701;DHT22;46541;49.894;10.886;2023-07-09T15:30:49;34.10;45.90
60701;DHT22;46541;49.894;10.886;2023-07-09T15:33:18;34.00;46.70
60701;DHT22;46541;49.894;10.886;2023-07-09T15:35:49;34.00;46.90
60701;DHT22;46541;49.894;10.886;2023-07-09T15:40:47;34.00;46.70
60701;DHT22;46541;49.894;10.886;2023-07-09T15:43:15;33.90;46.80
60701;DHT22;46541;49.894;10.886;2023-07-09T15:45:45;33.90;47.30
60701;DHT22;46541;49.894;10.886;2023-07-09T15:50:50;33.70;47.90
60701;DHT22;46541;49.894;10.886;2023-07-09T15:53:17;33.60;47.50
60701;DHT22;46541;49.894;10.886;2023-07-09T15:55:44;33.70;46.70
60701;DHT22;46541;49.894;10.886;2023-07-09T15:58:24;33.70;47.40
60701;DHT22;46541;49.894;10.886;2023-07-09T16:00:51;33.80;47.50
60701;DHT22;46541;49.894;10.886;2023-07-09T16:03:18;33.70;47.10
60701;DHT22;46541;49.894;10.886;2023-07-09T16:05:49;33.70;47.30
60701;DHT22;46541;49.894;10.886;2023-07-09T16:08:16;33.70;47.00
60701;DHT22;46541;49.894;10.886;2023-07-09T16:10:43;33.70;46.90
60701;DHT22;46541;49.894;10.886;2023-07-09T16:13:21;33.70;47.30
60701;DHT22;46541;49.894;10.886;2023-07-09T16:15:49;33.70;47.10
60701;DHT22;46541;49.894;10.886;2023-07-09T16:18:17;33.70;47.20
60701;DHT22;46541;49.894;10.886;2023-07-09T16:20:45;33.60;46.90
60701;DHT22;46541;49.894;10.886;2023-07-09T16:23:21;33.50;47.70
60701;DHT22;46541;49.894;10.886;2023-07-09T16:25:50;33.40;47.50